sensor_id;sensor_type;location;lat;lon;timestamp;pressure;altitude;pressure_sealevel;temperature;humidity
79481;BME280;68944;48.262;14.208;2023-12-20T00:00:00;98414.84;;;-3.60;100.00
79481;BME280;68944;48.262;14.208;2023-12-20T00:02:26;98419.13;;;-3.49;100.00
79481;BME280;68944;48.262;14.208;2023-12-20T00:04:51;98412.75;;;-3.45;100.00
79481;BME280;68944;48.262;14.208;2023-12-20T00:07:17;98415.47;;;-3.47;100.00
79481;BME280;68944;48.262;14.208;2023-12-20T00:09:42;98416.09;;;-3.55;100.00
79481;BME280;68944;48.262;14.208;2023-12-20T00:12:08;98412.94;;;-3.37;100.00
79481;BME280;68944;48.262;14.208;2023-12-20T00:14:33;98411.19;;;-3.36;100.00
79481;BME280;68944;48.262;14.208;2023-12-20T00:16:59;98396.72;;;-3.39;100.00
79481;BME280;68944;48.262;14.208;2023-12-20T00:19:24;98396.72;;;-3.39;100.00
79481;BME280;68944;48.262;14.208;2023-12-20T00:21:50;98379.97;;;-3.35;100.00
79481;BME280;68944;48.262;14.208;2023-12-20T00:24:15;98370.66;;;-3.37;100.00
79481;BME280;68944;48.262;14.208;2023-12-20T00:26:41;98371.19;;;-3.44;100.00
79481;BME280;68944;48.262;14.208;2023-12-20T00:29:07;98371.88;;;-3.41;100.00
79481;BME280;68944;48.262;14.208;2023-12-20T00:31:33;98367.38;;;-3.39;100.00
79481;BME280;68944;48.262;14.208;2023-12-20T00:33:58;98367.59;;;-3.21;100.00
79481;BME280;68944;48.262;14.208;2023-12-20T00:36:24;98371.66;;;-3.28;100.00
79481;BME280;68944;48.262;14.208;2023-12-20T00:38:49;98370.19;;;-3.21;100.00
79481;BME280;68944;48.262;14.208;2023-12-20T00:41:16;98371.50;;;-3.37;100.00
79481;BME280;68944;48.262;14.208;2023-12-20T00:43:42;98367.00;;;-3.35;100.00
79481;BME280;68944;48.262;14.208;2023-12-20T00:46:07;98368.06;;;-3.37;100.00
79481;BME280;68944;48.262;14.208;2023-12-20T00:48:33;98375.38;;;-3.52;100.00
79481;BME280;68944;48.262;14.208;2023-12-20T00:50:58;98363.28;;;-3.63;100.00
79481;BME280;68944;48.262;14.208;2023-12-20T00:53:24;98362.16;;;-3.71;100.00
79481;BME280;68944;48.262;14.208;2023-12-20T00:55:49;98353.00;;;-3.75;100.00
79481;BME280;68944;48.262;14.208;2023-12-20T00:58:15;98340.88;;;-3.74;100.00
79481;BME280;68944;48.262;14.208;2023-12-20T01:00:41;98352.63;;;-3.70;100.00
79481;BME280;68944;48.262;14.208;2023-12-20T01:03:08;98346.00;;;-3.63;100.00
79481;BME280;68944;48.262;14.208;2023-12-20T01:05:33;98336.63;;;-3.54;100.00
79481;BME280;68944;48.262;14.208;2023-12-20T01:07:59;98343.63;;;-3.45;100.00
79481;BME280;68944;48.262;14.208;2023-12-20T01:10:26;98341.03;;;-3.45;100.00
79481;BME280;68944;48.262;14.208;2023-12-20T01:12:53;98342.00;;;-3.46;100.00
79481;BME280;68944;48.262;14.208;2023-12-20T01:15:19;98338.59;;;-3.46;100.00
79481;BME280;68944;48.262;14.208;2023-12-20T01:17:44;98347.50;;;-3.39;100.00
79481;BME280;68944;48.262;14.208;2023-12-20T01:20:10;98346.28;;;-3.35;100.00
79481;BME280;68944;48.262;14.208;2023-12-20T01:22:35;98340.03;;;-3.22;100.00
79481;BME280;68944;48.262;14.208;2023-12-20T01:25:01;98332.59;;;-3.05;100.00
79481;BME280;68944;48.262;14.208;2023-12-20T01:27:28;98327.31;;;-3.04;100.00
79481;BME280;68944;48.262;14.208;2023-12-20T01:29:53;98330.88;;;-2.95;100.00
79481;BME280;68944;48.262;14.208;2023-12-20T01:32:19;98322.41;;;-2.97;100.00
79481;BME280;68944;48.262;14.208;2023-12-20T01:34:45;98321.44;;;-2.96;100.00
79481;BME280;68944;48.262;14.208;2023-12-20T01:37:10;98322.13;;;-3.04;100.00
79481;BME280;68944;48.262;14.208;2023-12-20T01:39:36;98323.44;;;-3.10;100.00
79481;BME280;68944;48.262;14.208;2023-12-20T01:42:01;98324.81;;;-3.05;100.00
79481;BME280;68944;48.262;14.208;2023-12-20T01:44:27;98317.66;;;-2.82;100.00
79481;BME280;68944;48.262;14.208;2023-12-20T01:46:53;98319.22;;;-2.49;100.00
79481;BME280;68944;48.262;14.208;2023-12-20T01:49:19;98311.31;;;-2.38;100.00
79481;BME280;68944;48.262;14.208;2023-12-20T01:51:46;98310.19;;;-2.15;100.00
79481;BME280;68944;48.262;14.208;2023-12-20T01:54:12;98315.94;;;-2.12;100.00
79481;BME280;68944;48.262;14.208;2023-12-20T01:56:38;98315.94;;;-2.02;100.00
79481;BME280;68944;48.262;14.208;2023-12-20T01:59:05;98322.22;;;-1.95;100.00
79481;BME280;68944;48.262;14.208;2023-12-20T02:06:52;98295.69;;;-1.88;100.00
79481;BME280;68944;48.262;14.208;2023-12-20T02:09:18;98293.22;;;-1.80;100.00
79481;BME280;68944;48.262;14.208;2023-12-20T02:11:45;98282.25;;;-1.74;100.00
79481;BME280;68944;48.262;14.208;2023-12-20T02:14:10;98276.09;;;-1.73;100.00
79481;BME280;68944;48.262;14.208;2023-12-20T02:16:36;98273.66;;;-1.74;100.00
79481;BME280;68944;48.262;14.208;2023-12-20T02:19:04;98262.84;;;-1.69;100.00
79481;BME280;68944;48.262;14.208;2023-12-20T02:21:32;98253.81;;;-1.65;100.00
79481;BME280;68944;48.262;14.208;2023-12-20T02:23:59;98256.81;;;-1.60;100.00
79481;BME280;68944;48.262;14.208;2023-12-20T02:26:24;98253.19;;;-1.49;100.00
79481;BME280;68944;48.262;14.208;2023-12-20T02:28:50;98250.19;;;-1.54;100.00
79481;BME280;68944;48.262;14.208;2023-12-20T02:31:15;98246.22;;;-1.49;100.00
79481;BME280;68944;48.262;14.208;2023-12-20T02:33:41;98232.59;;;-1.32;100.00
79481;BME280;68944;48.262;14.208;2023-12-20T02:36:07;98231.19;;;-1.27;100.00
79481;BME280;68944;48.262;14.208;2023-12-20T02:38:33;98224.06;;;-1.24;100.00
79481;BME280;68944;48.262;14.208;2023-12-20T02:40:59;98212.94;;;-1.17;100.00
79481;BME280;68944;48.262;14.208;2023-12-20T02:43:24;98218.38;;;-1.10;100.00
79481;BME280;68944;48.262;14.208;2023-12-20T02:45:50;98210.59;;;-1.10;100.00
79481;BME280;68944;48.262;14.208;2023-12-20T02:48:15;98207.09;;;-1.00;100.00
79481;BME280;68944;48.262;14.208;2023-12-20T02:50:41;98211.19;;;-0.98;100.00
79481;BME280;68944;48.262;14.208;2023-12-20T02:53:06;98205.84;;;-0.96;100.00
79481;BME280;68944;48.262;14.208;2023-12-20T02:55:32;98201.75;;;-0.99;100.00
79481;BME280;68944;48.262;14.208;2023-12-20T02:57:57;98206.44;;;-1.02;100.00
79481;BME280;68944;48.262;14.208;2023-12-20T03:00:23;98202.84;;;-1.01;100.00
79481;BME280;68944;48.262;14.208;2023-12-20T03:02:49;98189.84;;;-1.01;100.00
79481;BME280;68944;48.262;14.208;2023-12-20T03:05:15;98185.91;;;-1.06;100.00
79481;BME280;68944;48.262;14.208;2023-12-20T03:07:40;98179.44;;;-1.01;100.00
79481;BME280;68944;48.262;14.208;2023-12-20T03:10:08;98186.13;;;-0.99;100.00
79481;BME280;68944;48.262;14.208;2023-12-20T03:12:34;98176.84;;;-1.01;100.00
79481;BME280;68944;48.262;14.208;2023-12-20T03:15:00;98176.56;;;-0.98;100.00
79481;BME280;68944;48.262;14.208;2023-12-20T03:17:25;98168.31;;;-0.94;100.00
79481;BME280;68944;48.262;14.208;2023-12-20T03:19:51;98166.53;;;-0.93;100.00
79481;BME280;68944;48.262;14.208;2023-12-20T03:22:16;98168.97;;;-0.92;100.00
79481;BME280;68944;48.262;14.208;2023-12-20T03:24:42;98173.22;;;-0.90;100.00
79481;BME280;68944;48.262;14.208;2023-12-20T03:27:07;98181.97;;;-0.92;100.00
79481;BME280;68944;48.262;14.208;2023-12-20T03:29:33;98178.72;;;-0.94;100.00
79481;BME280;68944;48.262;14.208;2023-12-20T03:31:58;98177.81;;;-1.02;100.00
79481;BME280;68944;48.262;14.208;2023-12-20T03:34:24;98173.78;;;-0.97;100.00
79481;BME280;68944;48.262;14.208;2023-12-20T03:36:49;98188.34;;;-1.04;100.00
79481;BME280;68944;48.262;14.208;2023-12-20T03:39:15;98179.38;;;-1.10;100.00
79481;BME280;68944;48.262;14.208;2023-12-20T03:41:40;98187.34;;;-1.11;100.00
79481;BME280;68944;48.262;14.208;2023-12-20T03:44:06;98196.59;;;-1.09;100.00
79481;BME280;68944;48.262;14.208;2023-12-20T03:46:31;98197.41;;;-1.08;100.00
79481;BME280;68944;48.262;14.208;2023-12-20T03:48:57;98188.34;;;-1.04;100.00
79481;BME280;68944;48.262;14.208;2023-12-20T03:51:23;98184.97;;;-1.05;100.00
79481;BME280;68944;48.262;14.208;2023-12-20T03:53:48;98192.44;;;-1.01;100.00
79481;BME280;68944;48.262;14.208;2023-12-20T03:56:14;98184.34;;;-0.98;100.00
79481;BME280;68944;48.262;14.208;2023-12-20T03:58:39;98182.44;;;-0.96;100.00
79481;BME280;68944;48.262;14.208;2023-12-20T04:01:09;98174.91;;;-0.99;100.00
79481;BME280;68944;48.262;14.208;2023-12-20T04:03:36;98165.41;;;-0.90;100.00
79481;BME280;68944;48.262;14.208;2023-12-20T04:06:01;98174.34;;;-0.93;100.00
79481;BME280;68944;48.262;14.208;2023-12-20T04:08:26;98161.91;;;-0.99;100.00
79481;BME280;68944;48.262;14.208;2023-12-20T04:10:52;98146.97;;;-0.97;100.00
79481;BME280;68944;48.262;14.208;2023-12-20T04:13:17;98149.06;;;-1.01;100.00
79481;BME280;68944;48.262;14.208;2023-12-20T04:15:43;98143.13;;;-0.93;100.00
79481;BME280;68944;48.262;14.208;2023-12-20T04:18:09;98150.25;;;-0.95;100.00
79481;BME280;68944;48.262;14.208;2023-12-20T04:20:35;98143.34;;;-0.86;100.00
79481;BME280;68944;48.262;14.208;2023-12-20T04:23:00;98139.91;;;-0.87;100.00
79481;BME280;68944;48.262;14.208;2023-12-20T04:25:26;98126.91;;;-0.87;100.00
79481;BME280;68944;48.262;14.208;2023-12-20T04:27:51;98131.81;;;-0.84;100.00
79481;BME280;68944;48.262;14.208;2023-12-20T04:30:17;98137.97;;;-0.85;100.00
79481;BME280;68944;48.262;14.208;2023-12-20T04:32:43;98144.59;;;-0.72;100.00
79481;BME280;68944;48.262;14.208;2023-12-20T04:35:08;98136.19;;;-0.66;100.00
79481;BME280;68944;48.262;14.208;2023-12-20T04:37:34;98160.22;;;-0.46;100.00
79481;BME280;68944;48.262;14.208;2023-12-20T04:39:59;98163.81;;;-0.20;100.00
79481;BME280;68944;48.262;14.208;2023-12-20T04:42:25;98175.63;;;0.01;100.00
79481;BME280;68944;48.262;14.208;2023-12-20T04:44:50;98177.97;;;0.13;100.00
79481;BME280;68944;48.262;14.208;2023-12-20T04:47:15;98177.09;;;-0.05;100.00
79481;BME280;68944;48.262;14.208;2023-12-20T04:49:41;98162.25;;;-0.04;100.00
79481;BME280;68944;48.262;14.208;2023-12-20T04:52:06;98166.31;;;-0.10;100.00
79481;BME280;68944;48.262;14.208;2023-12-20T04:54:32;98168.72;;;-0.17;100.00
79481;BME280;68944;48.262;14.208;2023-12-20T04:56:57;98157.56;;;-0.27;100.00
79481;BME280;68944;48.262;14.208;2023-12-20T04:59:23;98162.13;;;-0.29;100.00
79481;BME280;68944;48.262;14.208;2023-12-20T05:01:49;98161.66;;;-0.25;100.00
79481;BME280;68944;48.262;14.208;2023-12-20T05:04:15;98175.91;;;-0.37;100.00
79481;BME280;68944;48.262;14.208;2023-12-20T05:06:40;98174.72;;;-0.43;100.00
79481;BME280;68944;48.262;14.208;2023-12-20T05:09:06;98171.91;;;-0.50;100.00
79481;BME280;68944;48.262;14.208;2023-12-20T05:11:32;98176.25;;;-0.59;100.00
79481;BME280;68944;48.262;14.208;2023-12-20T05:13:57;98186.66;;;-0.59;100.00
79481;BME280;68944;48.262;14.208;2023-12-20T05:16:22;98192.72;;;-0.50;100.00
79481;BME280;68944;48.262;14.208;2023-12-20T05:18:48;98194.13;;;-0.55;100.00
79481;BME280;68944;48.262;14.208;2023-12-20T05:21:17;98197.44;;;-0.53;100.00
79481;BME280;68944;48.262;14.208;2023-12-20T05:23:43;98212.06;;;-0.52;100.00
79481;BME280;68944;48.262;14.208;2023-12-20T05:26:08;98222.63;;;-0.54;100.00
79481;BME280;68944;48.262;14.208;2023-12-20T05:28:34;98223.91;;;-0.58;100.00
79481;BME280;68944;48.262;14.208;2023-12-20T05:30:59;98227.41;;;-0.49;100.00
79481;BME280;68944;48.262;14.208;2023-12-20T05:33:25;98221.00;;;-0.55;100.00
79481;BME280;68944;48.262;14.208;2023-12-20T05:35:50;98212.44;;;-0.47;100.00
79481;BME280;68944;48.262;14.208;2023-12-20T05:38:15;98239.28;;;-0.28;100.00
79481;BME280;68944;48.262;14.208;2023-12-20T05:40:42;98229.00;;;-0.30;100.00
79481;BME280;68944;48.262;14.208;2023-12-20T05:43:07;98234.53;;;-0.33;100.00
79481;BME280;68944;48.262;14.208;2023-12-20T05:45:33;98232.19;;;-0.36;100.00
79481;BME280;68944;48.262;14.208;2023-12-20T05:47:59;98234.34;;;-0.31;100.00
79481;BME280;68944;48.262;14.208;2023-12-20T05:50:25;98228.66;;;-0.35;100.00
79481;BME280;68944;48.262;14.208;2023-12-20T05:52:50;98227.81;;;-0.36;100.00
79481;BME280;68944;48.262;14.208;2023-12-20T05:55:16;98238.31;;;-0.46;100.00
79481;BME280;68944;48.262;14.208;2023-12-20T05:57:41;98228.34;;;-0.50;100.00
79481;BME280;68944;48.262;14.208;2023-12-20T06:00:09;98237.81;;;-0.49;100.00
79481;BME280;68944;48.262;14.208;2023-12-20T06:02:39;98249.34;;;-0.52;100.00
79481;BME280;68944;48.262;14.208;2023-12-20T06:05:06;98228.19;;;-0.49;100.00
79481;BME280;68944;48.262;14.208;2023-12-20T06:07:31;98234.22;;;-0.48;100.00
79481;BME280;68944;48.262;14.208;2023-12-20T06:09:57;98238.09;;;-0.52;100.00
79481;BME280;68944;48.262;14.208;2023-12-20T06:12:22;98244.78;;;-0.31;100.00
79481;BME280;68944;48.262;14.208;2023-12-20T06:14:48;98243.59;;;0.43;100.00
79481;BME280;68944;48.262;14.208;2023-12-20T06:17:13;98236.31;;;1.07;100.00
79481;BME280;68944;48.262;14.208;2023-12-20T06:19:39;98229.66;;;1.21;100.00
79481;BME280;68944;48.262;14.208;2023-12-20T06:22:04;98235.38;;;1.33;100.00
79481;BME280;68944;48.262;14.208;2023-12-20T06:24:30;98224.13;;;1.49;100.00
79481;BME280;68944;48.262;14.208;2023-12-20T06:26:59;98218.75;;;1.59;100.00
79481;BME280;68944;48.262;14.208;2023-12-20T06:29:24;98215.50;;;1.57;100.00
79481;BME280;68944;48.262;14.208;2023-12-20T06:31:49;98211.09;;;1.57;100.00
79481;BME280;68944;48.262;14.208;2023-12-20T06:34:15;98213.34;;;1.35;100.00
79481;BME280;68944;48.262;14.208;2023-12-20T06:36:40;98220.38;;;1.27;100.00
79481;BME280;68944;48.262;14.208;2023-12-20T06:39:06;98223.13;;;1.17;100.00
79481;BME280;68944;48.262;14.208;2023-12-20T06:41:31;98237.94;;;0.99;100.00
79481;BME280;68944;48.262;14.208;2023-12-20T06:43:57;98253.72;;;0.89;100.00
79481;BME280;68944;48.262;14.208;2023-12-20T06:46:23;98258.06;;;0.72;100.00
79481;BME280;68944;48.262;14.208;2023-12-20T06:48:48;98263.22;;;0.55;100.00
79481;BME280;68944;48.262;14.208;2023-12-20T06:51:15;98274.88;;;0.43;100.00
79481;BME280;68944;48.262;14.208;2023-12-20T06:53:40;98282.47;;;0.28;100.00
79481;BME280;68944;48.262;14.208;2023-12-20T06:56:06;98293.19;;;0.25;100.00
79481;BME280;68944;48.262;14.208;2023-12-20T06:58:32;98285.47;;;0.15;100.00
79481;BME280;68944;48.262;14.208;2023-12-20T07:00:58;98293.06;;;0.08;100.00
79481;BME280;68944;48.262;14.208;2023-12-20T07:03:23;98291.91;;;0.02;100.00
79481;BME280;68944;48.262;14.208;2023-12-20T07:05:49;98300.69;;;0.01;100.00
79481;BME280;68944;48.262;14.208;2023-12-20T07:08:14;98311.56;;;-0.04;100.00
79481;BME280;68944;48.262;14.208;2023-12-20T07:10:41;98319.53;;;-0.05;100.00
79481;BME280;68944;48.262;14.208;2023-12-20T07:13:07;98326.00;;;-0.09;100.00
79481;BME280;68944;48.262;14.208;2023-12-20T07:15:33;98323.75;;;-0.04;100.00
79481;BME280;68944;48.262;14.208;2023-12-20T07:17:58;98335.22;;;0.03;100.00
79481;BME280;68944;48.262;14.208;2023-12-20T07:20:26;98332.72;;;0.20;100.00
79481;BME280;68944;48.262;14.208;2023-12-20T07:22:51;98343.78;;;0.40;100.00
79481;BME280;68944;48.262;14.208;2023-12-20T07:25:16;98351.63;;;0.67;100.00
79481;BME280;68944;48.262;14.208;2023-12-20T07:27:43;98357.22;;;0.81;100.00
79481;BME280;68944;48.262;14.208;2023-12-20T07:30:08;98366.06;;;0.88;100.00
79481;BME280;68944;48.262;14.208;2023-12-20T07:32:34;98379.50;;;1.01;100.00
79481;BME280;68944;48.262;14.208;2023-12-20T07:34:59;98372.00;;;1.07;100.00
79481;BME280;68944;48.262;14.208;2023-12-20T07:37:25;98373.00;;;1.14;100.00
79481;BME280;68944;48.262;14.208;2023-12-20T07:39:51;98383.63;;;1.21;100.00
79481;BME280;68944;48.262;14.208;2023-12-20T07:42:16;98380.25;;;1.29;100.00
79481;BME280;68944;48.262;14.208;2023-12-20T07:44:41;98385.16;;;1.32;100.00
79481;BME280;68944;48.262;14.208;2023-12-20T07:47:07;98381.22;;;1.28;100.00
79481;BME280;68944;48.262;14.208;2023-12-20T07:49:32;98377.66;;;1.37;100.00
79481;BME280;68944;48.262;14.208;2023-12-20T07:51:58;98379.00;;;1.41;100.00
79481;BME280;68944;48.262;14.208;2023-12-20T07:54:24;98388.16;;;1.45;100.00
79481;BME280;68944;48.262;14.208;2023-12-20T07:56:49;98394.69;;;1.50;100.00
79481;BME280;68944;48.262;14.208;2023-12-20T07:59:15;98394.03;;;1.47;100.00
79481;BME280;68944;48.262;14.208;2023-12-20T08:01:40;98403.16;;;1.52;100.00
79481;BME280;68944;48.262;14.208;2023-12-20T08:04:06;98396.47;;;1.49;100.00
79481;BME280;68944;48.262;14.208;2023-12-20T08:06:31;98399.59;;;1.53;100.00
79481;BME280;68944;48.262;14.208;2023-12-20T08:08:57;98399.59;;;1.53;100.00
79481;BME280;68944;48.262;14.208;2023-12-20T08:11:22;98412.66;;;1.53;100.00
79481;BME280;68944;48.262;14.208;2023-12-20T08:13:48;98399.44;;;1.54;100.00
79481;BME280;68944;48.262;14.208;2023-12-20T08:16:13;98400.56;;;1.60;100.00
79481;BME280;68944;48.262;14.208;2023-12-20T08:18:40;98405.97;;;1.58;100.00
79481;BME280;68944;48.262;14.208;2023-12-20T08:21:06;98405.47;;;1.55;100.00
79481;BME280;68944;48.262;14.208;2023-12-20T08:23:33;98406.97;;;1.57;100.00
79481;BME280;68944;48.262;14.208;2023-12-20T08:26:04;98414.78;;;1.57;100.00
79481;BME280;68944;48.262;14.208;2023-12-20T08:28:30;98415.28;;;1.61;100.00
79481;BME280;68944;48.262;14.208;2023-12-20T08:30:56;98412.19;;;1.57;100.00
79481;BME280;68944;48.262;14.208;2023-12-20T08:33:22;98413.63;;;1.60;100.00
79481;BME280;68944;48.262;14.208;2023-12-20T08:35:47;98413.31;;;1.63;100.00
79481;BME280;68944;48.262;14.208;2023-12-20T08:38:13;98418.72;;;1.62;100.00
79481;BME280;68944;48.262;14.208;2023-12-20T08:40:39;98408.09;;;1.63;100.00
79481;BME280;68944;48.262;14.208;2023-12-20T08:43:06;98414.63;;;1.67;100.00
79481;BME280;68944;48.262;14.208;2023-12-20T08:45:31;98419.56;;;1.70;100.00
79481;BME280;68944;48.262;14.208;2023-12-20T08:47:57;98423.16;;;1.78;100.00
79481;BME280;68944;48.262;14.208;2023-12-20T08:50:22;98424.47;;;1.82;100.00
79481;BME280;68944;48.262;14.208;2023-12-20T08:52:48;98433.13;;;1.83;100.00
79481;BME280;68944;48.262;14.208;2023-12-20T08:55:13;98428.41;;;1.86;100.00
79481;BME280;68944;48.262;14.208;2023-12-20T08:57:40;98440.50;;;1.87;100.00
79481;BME280;68944;48.262;14.208;2023-12-20T09:00:06;98426.91;;;1.84;100.00
79481;BME280;68944;48.262;14.208;2023-12-20T09:02:33;98427.44;;;1.87;100.00
79481;BME280;68944;48.262;14.208;2023-12-20T09:05:01;98423.50;;;1.91;100.00
79481;BME280;68944;48.262;14.208;2023-12-20T09:07:28;98424.81;;;1.96;100.00
79481;BME280;68944;48.262;14.208;2023-12-20T09:09:55;98430.69;;;1.98;100.00
79481;BME280;68944;48.262;14.208;2023-12-20T09:12:21;98433.97;;;2.00;100.00
79481;BME280;68944;48.262;14.208;2023-12-20T09:14:48;98432.69;;;2.04;100.00
79481;BME280;68944;48.262;14.208;2023-12-20T09:17:15;98440.72;;;2.11;100.00
79481;BME280;68944;48.262;14.208;2023-12-20T09:19:41;98434.00;;;2.08;100.00
79481;BME280;68944;48.262;14.208;2023-12-20T09:22:09;98434.81;;;2.17;100.00
79481;BME280;68944;48.262;14.208;2023-12-20T09:24:34;98426.00;;;2.10;100.00
79481;BME280;68944;48.262;14.208;2023-12-20T09:27:00;98434.66;;;2.19;100.00
79481;BME280;68944;48.262;14.208;2023-12-20T09:29:25;98435.97;;;2.23;100.00
79481;BME280;68944;48.262;14.208;2023-12-20T09:31:52;98433.34;;;2.23;100.00
79481;BME280;68944;48.262;14.208;2023-12-20T09:34:17;98432.53;;;2.22;100.00
79481;BME280;68944;48.262;14.208;2023-12-20T09:36:43;98426.97;;;2.25;100.00
79481;BME280;68944;48.262;14.208;2023-12-20T09:39:17;98431.72;;;2.30;100.00
79481;BME280;68944;48.262;14.208;2023-12-20T09:42:07;98421.75;;;2.34;100.00
79481;BME280;68944;48.262;14.208;2023-12-20T09:44:33;98427.31;;;2.31;100.00
79481;BME280;68944;48.262;14.208;2023-12-20T09:47:05;98411.78;;;2.37;100.00
79481;BME280;68944;48.262;14.208;2023-12-20T09:49:30;98415.69;;;2.42;100.00
79481;BME280;68944;48.262;14.208;2023-12-20T09:51:57;98400.19;;;2.40;100.00
79481;BME280;68944;48.262;14.208;2023-12-20T09:54:25;98390.84;;;2.46;100.00
79481;BME280;68944;48.262;14.208;2023-12-20T09:56:52;98400.81;;;2.50;100.00
79481;BME280;68944;48.262;14.208;2023-12-20T09:59:17;98393.16;;;2.57;100.00
79481;BME280;68944;48.262;14.208;2023-12-20T10:01:43;98391.19;;;2.59;100.00
79481;BME280;68944;48.262;14.208;2023-12-20T10:04:10;98388.56;;;2.59;100.00
79481;BME280;68944;48.262;14.208;2023-12-20T10:06:41;98387.06;;;2.65;100.00
79481;BME280;68944;48.262;14.208;2023-12-20T10:09:07;98388.88;;;2.65;100.00
79481;BME280;68944;48.262;14.208;2023-12-20T10:11:35;98389.19;;;2.70;100.00
79481;BME280;68944;48.262;14.208;2023-12-20T10:14:02;98386.91;;;2.67;100.00
79481;BME280;68944;48.262;14.208;2023-12-20T10:16:28;98382.84;;;2.64;100.00
79481;BME280;68944;48.262;14.208;2023-12-20T10:18:54;98380.38;;;2.63;100.00
79481;BME280;68944;48.262;14.208;2023-12-20T10:21:21;98380.88;;;2.66;100.00
79481;BME280;68944;48.262;14.208;2023-12-20T10:23:48;98383.31;;;2.68;100.00
79481;BME280;68944;48.262;14.208;2023-12-20T10:26:25;98383.78;;;2.71;100.00
79481;BME280;68944;48.262;14.208;2023-12-20T10:28:55;98375.44;;;2.76;100.00
79481;BME280;68944;48.262;14.208;2023-12-20T10:31:29;98373.63;;;2.77;100.00
79481;BME280;68944;48.262;14.208;2023-12-20T10:33:58;98371.53;;;2.80;100.00
79481;BME280;68944;48.262;14.208;2023-12-20T10:36:27;98362.66;;;2.81;100.00
79481;BME280;68944;48.262;14.208;2023-12-20T10:38:54;98360.88;;;2.82;100.00
79481;BME280;68944;48.262;14.208;2023-12-20T10:41:25;98363.97;;;2.86;100.00
79481;BME280;68944;48.262;14.208;2023-12-20T10:44:00;98361.66;;;2.91;100.00
79481;BME280;68944;48.262;14.208;2023-12-20T10:46:27;98358.06;;;2.92;100.00
79481;BME280;68944;48.262;14.208;2023-12-20T10:48:54;98362.50;;;2.91;100.00
79481;BME280;68944;48.262;14.208;2023-12-20T10:51:20;98365.94;;;2.92;100.00
79481;BME280;68944;48.262;14.208;2023-12-20T10:53:50;98361.97;;;2.96;100.00
79481;BME280;68944;48.262;14.208;2023-12-20T10:56:19;98359.00;;;2.99;100.00
79481;BME280;68944;48.262;14.208;2023-12-20T10:58:47;98356.38;;;3.07;100.00
79481;BME280;68944;48.262;14.208;2023-12-20T11:01:14;98352.25;;;3.13;100.00
79481;BME280;68944;48.262;14.208;2023-12-20T11:03:53;98351.41;;;3.21;100.00
79481;BME280;68944;48.262;14.208;2023-12-20T11:06:54;98342.59;;;3.22;100.00
79481;BME280;68944;48.262;14.208;2023-12-20T11:09:34;98343.56;;;3.21;100.00
79481;BME280;68944;48.262;14.208;2023-12-20T11:12:16;98327.66;;;3.23;100.00
79481;BME280;68944;48.262;14.208;2023-12-20T11:14:48;98334.41;;;3.17;100.00
79481;BME280;68944;48.262;14.208;2023-12-20T11:17:14;98333.13;;;3.13;100.00
79481;BME280;68944;48.262;14.208;2023-12-20T11:22:27;98330.66;;;3.11;100.00
79481;BME280;68944;48.262;14.208;2023-12-20T11:25:06;98336.53;;;3.13;100.00
79481;BME280;68944;48.262;14.208;2023-12-20T11:27:36;98327.25;;;3.11;100.00
79481;BME280;68944;48.262;14.208;2023-12-20T11:30:05;98326.72;;;3.15;100.00
79481;BME280;68944;48.262;14.208;2023-12-20T11:32:36;98322.59;;;3.21;100.00
79481;BME280;68944;48.262;14.208;2023-12-20T11:37:37;98318.97;;;3.30;100.00
79481;BME280;68944;48.262;14.208;2023-12-20T11:40:04;98325.97;;;3.38;100.00
79481;BME280;68944;48.262;14.208;2023-12-20T11:42:38;98331.97;;;3.47;100.00
79481;BME280;68944;48.262;14.208;2023-12-20T11:45:03;98314.56;;;3.55;100.00
79481;BME280;68944;48.262;14.208;2023-12-20T11:47:30;98317.34;;;3.53;100.00
79481;BME280;68944;48.262;14.208;2023-12-20T11:49:56;98317.88;;;3.48;100.00
79481;BME280;68944;48.262;14.208;2023-12-20T11:52:22;98313.31;;;3.42;100.00
79481;BME280;68944;48.262;14.208;2023-12-20T11:54:48;98321.53;;;3.39;100.00
79481;BME280;68944;48.262;14.208;2023-12-20T11:57:13;98313.16;;;3.44;100.00
79481;BME280;68944;48.262;14.208;2023-12-20T11:59:39;98313.16;;;3.44;100.00
79481;BME280;68944;48.262;14.208;2023-12-20T12:02:05;98311.88;;;3.39;100.00
79481;BME280;68944;48.262;14.208;2023-12-20T12:04:31;98301.88;;;3.43;100.00
79481;BME280;68944;48.262;14.208;2023-12-20T12:06:56;98304.31;;;3.45;100.00
79481;BME280;68944;48.262;14.208;2023-12-20T12:09:22;98304.31;;;3.45;100.00
79481;BME280;68944;48.262;14.208;2023-12-20T12:11:47;98316.25;;;3.47;100.00
79481;BME280;68944;48.262;14.208;2023-12-20T12:14:13;98311.66;;;3.49;100.00
79481;BME280;68944;48.262;14.208;2023-12-20T12:16:38;98305.25;;;3.52;100.00
79481;BME280;68944;48.262;14.208;2023-12-20T12:19:04;98306.72;;;3.55;100.00
79481;BME280;68944;48.262;14.208;2023-12-20T12:21:29;98306.03;;;3.52;100.00
79481;BME280;68944;48.262;14.208;2023-12-20T12:24:08;98292.31;;;3.50;100.00
79481;BME280;68944;48.262;14.208;2023-12-20T12:26:35;98292.31;;;3.50;100.00
79481;BME280;68944;48.262;14.208;2023-12-20T12:29:00;98284.44;;;3.50;100.00
79481;BME280;68944;48.262;14.208;2023-12-20T12:31:26;98296.22;;;3.55;100.00
79481;BME280;68944;48.262;14.208;2023-12-20T12:33:52;98282.31;;;3.54;100.00
79481;BME280;68944;48.262;14.208;2023-12-20T12:36:17;98269.38;;;3.52;100.00
79481;BME280;68944;48.262;14.208;2023-12-20T12:38:43;98278.69;;;3.55;100.00
79481;BME280;68944;48.262;14.208;2023-12-20T12:41:09;98276.38;;;3.60;100.00
79481;BME280;68944;48.262;14.208;2023-12-20T12:43:35;98276.38;;;3.60;100.00
79481;BME280;68944;48.262;14.208;2023-12-20T12:46:01;98271.56;;;3.64;100.00
79481;BME280;68944;48.262;14.208;2023-12-20T12:48:26;98275.44;;;3.77;100.00
79481;BME280;68944;48.262;14.208;2023-12-20T12:50:53;98258.97;;;3.83;100.00